createdAt,value
2022-09-07T00:00:11.554Z,101350.50
2022-09-07T00:01:01.771Z,101340.69
2022-09-07T00:01:33.132Z,101345.81
2022-09-07T00:02:04.550Z,101335.19
2022-09-07T00:02:35.940Z,101336.38
2022-09-07T00:03:07.867Z,101336.38
2022-09-07T00:03:39.317Z,101333.63
2022-09-07T00:04:10.765Z,101336.34
2022-09-07T00:04:42.262Z,101328.47
2022-09-07T00:05:13.691Z,101324.09
2022-09-07T00:05:47.046Z,101325.22
2022-09-07T00:06:18.497Z,101321.72
2022-09-07T00:06:49.870Z,101327.16
2022-09-07T00:07:21.234Z,101321.28
2022-09-07T00:07:52.581Z,101312.28
2022-09-07T00:08:26.826Z,101324.09
2022-09-07T00:08:58.480Z,101324.09
2022-09-07T00:09:30.007Z,101314.69
2022-09-07T00:10:20.230Z,101320.19
2022-09-07T00:11:00.240Z,101317.84
2022-09-07T00:11:31.616Z,101315.88
2022-09-07T00:12:03.241Z,101321.41
2022-09-07T00:12:34.603Z,101318.25
2022-09-07T00:13:07.102Z,101312.00
2022-09-07T00:13:40.293Z,101320.66
2022-09-07T00:14:11.723Z,101311.22
2022-09-07T00:14:43.122Z,101333.25
2022-09-07T00:15:14.744Z,101322.63
2022-09-07T00:15:46.736Z,101321.47
2022-09-07T00:16:25.130Z,101326.16
2022-09-07T00:16:56.739Z,101317.47
2022-09-07T00:17:46.779Z,101322.59
2022-09-07T00:18:18.560Z,101333.25
2022-09-07T00:18:50.260Z,101331.69
2022-09-07T00:19:22.607Z,101326.56
2022-09-07T00:19:55.273Z,101315.13
2022-09-07T00:20:26.755Z,101321.44
2022-09-07T00:21:03.876Z,101326.94
2022-09-07T00:21:36.331Z,101329.28
2022-09-07T00:22:07.861Z,101319.84
2022-09-07T00:22:39.437Z,101328.09
2022-09-07T00:23:10.928Z,101328.50
2022-09-07T00:23:42.659Z,101319.84
2022-09-07T00:25:03.047Z,101327.72
2022-09-07T00:25:39.230Z,101328.94
2022-09-07T00:26:15.994Z,101330.53
2022-09-07T00:26:47.344Z,101328.25
2022-09-07T00:27:18.891Z,101323.16
2022-09-07T00:28:09.074Z,101321.56
2022-09-07T00:28:40.587Z,101322.72
2022-09-07T00:29:30.401Z,101320.31
2022-09-07T00:30:01.761Z,101319.91
2022-09-07T00:30:34.139Z,101319.91
2022-09-07T00:31:10.199Z,101324.31
2022-09-07T00:31:41.820Z,101320.38
2022-09-07T00:32:13.205Z,101319.22
2022-09-07T00:32:44.592Z,101321.56
2022-09-07T00:33:16.061Z,101327.50
2022-09-07T00:33:49.090Z,101318.81
2022-09-07T00:34:20.474Z,101314.50
2022-09-07T00:34:51.846Z,101319.59
2022-09-07T00:35:23.240Z,101324.75
2022-09-07T00:35:54.743Z,101317.28
2022-09-07T00:36:26.681Z,101313.38
2022-09-07T00:36:58.192Z,101319.69
2022-09-07T00:37:29.589Z,101317.34
2022-09-07T00:38:01.214Z,101320.88
2022-09-07T00:38:32.654Z,101324.75
2022-09-07T00:39:54.671Z,101315.28
2022-09-07T00:40:26.184Z,101325.91
2022-09-07T00:40:57.596Z,101315.28
2022-09-07T00:41:28.976Z,101318.81
2022-09-07T00:42:01.316Z,101318.41
2022-09-07T00:42:51.224Z,101321.16
2022-09-07T00:43:40.652Z,101320.31
2022-09-07T00:44:42.960Z,101315.59
2022-09-07T00:45:20.847Z,101312.84
2022-09-07T00:45:52.233Z,101319.97
2022-09-07T00:46:29.379Z,101310.94
2022-09-07T00:47:01.062Z,101312.91
2022-09-07T00:48:55.098Z,101306.59
2022-09-07T00:49:26.800Z,101310.16
2022-09-07T00:50:07.761Z,101304.22
2022-09-07T00:50:44.303Z,101314.06
2022-09-07T00:51:21.577Z,101307.31
2022-09-07T00:51:59.338Z,101308.09
2022-09-07T00:52:32.358Z,101306.91
2022-09-07T00:53:29.067Z,101306.91
2022-09-07T00:54:24.359Z,101312.06
2022-09-07T00:55:01.836Z,101313.28
2022-09-07T00:55:36.509Z,101308.56
2022-09-07T00:56:09.063Z,101312.53
2022-09-07T00:56:59.747Z,101320.00
2022-09-07T00:57:32.033Z,101318.81
2022-09-07T00:58:05.016Z,101318.81
2022-09-07T00:58:39.221Z,101312.19
2022-09-07T00:59:14.072Z,101319.28
2022-09-07T00:59:50.232Z,101323.59
2022-09-07T01:01:11.941Z,101315.28
2022-09-07T01:01:45.036Z,101316.06
2022-09-07T01:02:18.066Z,101318.44
2022-09-07T01:02:51.894Z,101326.34
2022-09-07T01:03:27.715Z,101320.84
2022-09-07T01:04:00.909Z,101324.75
2022-09-07T01:04:33.088Z,101324.34
2022-09-07T01:05:34.187Z,101328.66
2022-09-07T01:06:16.473Z,101327.50
2022-09-07T01:06:49.044Z,101320.78
2022-09-07T01:07:39.066Z,101331.03
2022-09-07T01:08:13.071Z,101339.28
2022-09-07T01:08:46.298Z,101334.88
2022-09-07T01:09:22.132Z,101342.34
2022-09-07T01:09:55.644Z,101341.94
2022-09-07T01:10:33.404Z,101345.03
2022-09-07T01:11:05.087Z,101346.59
2022-09-07T01:11:36.885Z,101351.31
2022-09-07T01:12:08.724Z,101350.91
2022-09-07T01:12:40.116Z,101361.09
2022-09-07T01:13:11.516Z,101348.06
2022-09-07T01:14:02.277Z,101356.72
2022-09-07T01:14:43.853Z,101365.38
2022-09-07T01:15:15.213Z,101354.34
2022-09-07T01:16:04.670Z,101362.97
2022-09-07T01:16:57.230Z,101369.66
2022-09-07T01:17:56.227Z,101369.25
2022-09-07T01:18:54.059Z,101375.53
2022-09-07T01:20:04.116Z,101370.81
2022-09-07T01:20:51.877Z,101374.34
2022-09-07T01:21:32.316Z,101381.06
2022-09-07T01:22:24.352Z,101376.72
2022-09-07T01:23:07.995Z,101375.53
2022-09-07T01:25:42.775Z,101382.63
2022-09-07T01:26:45.020Z,101387.34
2022-09-07T01:27:35.417Z,101381.06
2022-09-07T01:28:23.279Z,101374.75
2022-09-07T01:29:03.855Z,101384.59
2022-09-07T01:29:39.244Z,101380.28
2022-09-07T01:30:17.734Z,101378.34
2022-09-07T01:31:15.773Z,101379.50
2022-09-07T01:31:53.087Z,101374.38
2022-09-07T01:33:01.847Z,101378.72
2022-09-07T01:34:10.906Z,101378.34
2022-09-07T01:34:46.184Z,101378.75
2022-09-07T01:35:38.891Z,101379.53
2022-09-07T01:36:12.825Z,101385.03
2022-09-07T01:37:18.463Z,101387.41
2022-09-07T01:38:20.199Z,101377.56
2022-09-07T01:38:57.148Z,101376.34
2022-09-07T01:39:38.957Z,101388.97
2022-09-07T01:40:19.213Z,101383.03
2022-09-07T01:42:10.176Z,101376.31
2022-09-07T01:42:54.419Z,101377.88
2022-09-07T01:43:36.542Z,101380.63
2022-09-07T01:44:16.177Z,101384.19
2022-09-07T01:45:34.320Z,101370.75
2022-09-07T01:47:13.102Z,101371.13
2022-09-07T01:47:53.228Z,101365.19
2022-09-07T01:48:26.367Z,101359.69
2022-09-07T01:49:15.645Z,101369.16
2022-09-07T01:50:01.990Z,101359.69
2022-09-07T01:50:40.800Z,101348.66
2022-09-07T01:51:12.964Z,101354.16
2022-09-07T01:51:48.371Z,101350.63
2022-09-07T01:52:31.458Z,101350.63
2022-09-07T01:53:41.760Z,101344.66
2022-09-07T01:54:30.368Z,101339.59
2022-09-07T01:55:22.355Z,101334.47
2022-09-07T01:56:01.245Z,101334.91
2022-09-07T01:56:44.399Z,101327.41
2022-09-07T01:57:30.847Z,101322.72
2022-09-07T01:58:13.456Z,101317.66
2022-09-07T01:58:56.625Z,101314.47
2022-09-07T01:59:44.180Z,101313.69
2022-09-07T02:00:19.007Z,101306.19
2022-09-07T02:00:56.484Z,101295.59
2022-09-07T02:01:51.931Z,101295.59
2022-09-07T02:02:30.961Z,101293.28
2022-09-07T02:03:18.287Z,101293.34
2022-09-07T02:03:57.814Z,101296.53
2022-09-07T02:04:38.823Z,101288.25
2022-09-07T02:05:16.779Z,101293.34
2022-09-07T02:05:54.032Z,101296.88
2022-09-07T02:06:36.390Z,101290.63
2022-09-07T02:08:00.897Z,101287.56
2022-09-07T02:09:39.060Z,101281.78
2022-09-07T02:10:16.181Z,101276.28
2022-09-07T02:10:56.207Z,101277.44
2022-09-07T02:11:37.922Z,101270.34
2022-09-07T02:12:18.657Z,101276.22
2022-09-07T02:13:01.941Z,101266.75
2022-09-07T02:13:35.573Z,101269.09
2022-09-07T02:14:14.571Z,101271.06
2022-09-07T02:15:10.070Z,101268.72
2022-09-07T02:16:26.991Z,101278.50
2022-09-07T02:17:17.014Z,101274.97
2022-09-07T02:17:54.270Z,101275.38
2022-09-07T02:18:30.611Z,101278.13
2022-09-07T02:19:10.630Z,101278.13
2022-09-07T02:20:04.732Z,101278.13
2022-09-07T02:20:41.845Z,101278.56
2022-09-07T02:21:17.522Z,101273.41
2022-09-07T02:21:54.262Z,101277.72
2022-09-07T02:22:30.998Z,101275.38
2022-09-07T02:23:06.701Z,101271.81
2022-09-07T02:23:50.298Z,101272.22
2022-09-07T02:24:27.570Z,101267.47
2022-09-07T02:25:03.312Z,101265.91
2022-09-07T02:25:45.844Z,101263.19
2022-09-07T02:26:21.666Z,101267.63
2022-09-07T02:26:54.477Z,101270.03
2022-09-07T02:27:55.166Z,101271.59
2022-09-07T02:28:32.589Z,101273.16
2022-09-07T02:29:04.369Z,101264.50
2022-09-07T02:29:35.712Z,101266.84
2022-09-07T02:30:07.718Z,101264.06
2022-09-07T02:30:39.547Z,101270.34
2022-09-07T02:31:11.362Z,101269.16
2022-09-07T02:31:42.830Z,101262.06
2022-09-07T02:32:14.185Z,101267.59
2022-09-07T02:32:45.964Z,101264.84
2022-09-07T02:33:17.787Z,101259.72
2022-09-07T02:33:49.763Z,101270.34
2022-09-07T02:34:21.231Z,101259.72
2022-09-07T02:34:52.769Z,101273.44
2022-09-07T02:35:24.152Z,101260.09
2022-09-07T02:35:56.571Z,101271.06
2022-09-07T02:36:33.637Z,101265.97
2022-09-07T02:37:09.245Z,101264.41
2022-09-07T02:37:43.042Z,101269.09
2022-09-07T02:38:33.117Z,101263.56
2022-09-07T02:39:04.493Z,101259.25
2022-09-07T02:39:35.956Z,101269.94
2022-09-07T02:40:08.737Z,101266.81
2022-09-07T02:40:40.288Z,101264.88
2022-09-07T02:41:30.366Z,101261.34
2022-09-07T02:42:01.883Z,101266.06
2022-09-07T02:42:34.829Z,101268.81
2022-09-07T02:43:09.050Z,101260.19
2022-09-07T02:43:40.438Z,101268.81
2022-09-07T02:44:26.324Z,101263.31
2022-09-07T02:44:58.211Z,101263.31
2022-09-07T02:45:46.787Z,101263.31
2022-09-07T02:46:34.033Z,101262.94
2022-09-07T02:47:25.892Z,101259.00
2022-09-07T02:48:02.946Z,101252.38
2022-09-07T02:50:06.157Z,101252.38
2022-09-07T02:51:05.451Z,101257.09
2022-09-07T02:51:44.733Z,101258.28
2022-09-07T02:52:40.670Z,101253.19
2022-09-07T02:53:33.399Z,101257.91
2022-09-07T02:54:28.307Z,101249.66
2022-09-07T02:55:20.109Z,101255.94
2022-09-07T02:56:06.129Z,101258.69
2022-09-07T02:56:48.976Z,101252.03
2022-09-07T02:57:46.887Z,101254.84
2022-09-07T02:58:34.195Z,101254.84
2022-09-07T02:59:37.015Z,101256.41
2022-09-07T03:00:12.964Z,101256.78
2022-09-07T03:01:14.691Z,101257.53
2022-09-07T03:02:27.456Z,101260.31
2022-09-07T03:03:17.600Z,101271.78
2022-09-07T03:04:12.172Z,101269.00
2022-09-07T03:04:54.908Z,101274.53
2022-09-07T03:05:54.449Z,101274.09
2022-09-07T03:06:50.521Z,101276.84
2022-09-07T03:07:54.807Z,101278.41
2022-09-07T03:08:35.031Z,101275.25
2022-09-07T03:10:06.722Z,101275.25
2022-09-07T03:10:40.324Z,101271.34
2022-09-07T03:11:13.020Z,101275.66
2022-09-07T03:11:44.771Z,101262.31
2022-09-07T03:12:16.974Z,101276.84
2022-09-07T03:12:50.513Z,101272.13
2022-09-07T03:13:24.737Z,101267.38
2022-09-07T03:14:19.372Z,101270.13
2022-09-07T03:14:50.708Z,101266.59
2022-09-07T03:15:25.287Z,101261.53
2022-09-07T03:15:57.595Z,101266.97
2022-09-07T03:16:29.014Z,101269.72
2022-09-07T03:17:18.842Z,101270.09
2022-09-07T03:17:50.516Z,101270.09
2022-09-07T03:18:23.132Z,101266.16
2022-09-07T03:18:54.458Z,101266.16
2022-09-07T03:19:26.526Z,101267.34
2022-09-07T03:19:57.900Z,101268.91
2022-09-07T03:20:47.976Z,101264.97
2022-09-07T03:21:38.084Z,101261.00
2022-09-07T03:22:09.460Z,101267.72
2022-09-07T03:22:40.831Z,101262.19
2022-09-07T03:23:12.646Z,101256.69
2022-09-07T03:24:34.101Z,101266.53
2022-09-07T03:25:06.312Z,101262.97
2022-09-07T03:26:46.268Z,101272.81
2022-09-07T03:27:17.883Z,101272.81
2022-09-07T03:27:49.228Z,101266.53
2022-09-07T03:28:20.573Z,101266.53
2022-09-07T03:28:52.017Z,101272.03
2022-09-07T03:30:13.210Z,101268.09
2022-09-07T03:30:47.061Z,101265.31
2022-09-07T03:31:37.021Z,101273.22
2022-09-07T03:32:08.361Z,101268.09
2022-09-07T03:32:40.085Z,101272.81
2022-09-07T03:33:11.612Z,101268.91
2022-09-07T03:33:43.065Z,101275.19
2022-09-07T03:34:14.562Z,101275.97
2022-09-07T03:34:48.351Z,101271.25
2022-09-07T03:35:19.752Z,101273.63
2022-09-07T03:36:00.121Z,101275.19
2022-09-07T03:36:32.318Z,101275.19
2022-09-07T03:37:03.745Z,101272.06
2022-09-07T03:37:36.779Z,101271.66
2022-09-07T03:38:08.191Z,101274.78
2022-09-07T03:38:39.601Z,101263.41
2022-09-07T03:39:12.355Z,101265.75
2022-09-07T03:40:59.371Z,101270.84
2022-09-07T03:41:30.765Z,101265.75
2022-09-07T03:42:02.376Z,101266.16
2022-09-07T03:42:33.755Z,101261.41
2022-09-07T03:43:05.116Z,101260.63
2022-09-07T03:43:36.490Z,101263.41
2022-09-07T03:44:26.425Z,101259.13
2022-09-07T03:45:46.408Z,101258.28
2022-09-07T03:46:19.722Z,101264.59
2022-09-07T03:46:51.377Z,101255.53
2022-09-07T03:47:22.775Z,101259.06
2022-09-07T03:47:54.149Z,101255.94
2022-09-07T03:48:25.653Z,101252.00
2022-09-07T03:49:46.118Z,101249.66
2022-09-07T03:50:17.936Z,101241.38
2022-09-07T03:51:04.375Z,101237.84
2022-09-07T03:51:35.758Z,101237.84
2022-09-07T03:52:07.407Z,101235.50
2022-09-07T03:52:39.056Z,101230.75
2022-09-07T03:53:10.385Z,101226.47
2022-09-07T03:53:44.577Z,101220.59
2022-09-07T03:54:15.989Z,101209.19
2022-09-07T03:54:47.435Z,101209.19
2022-09-07T03:55:19.016Z,101210.03
2022-09-07T03:56:01.420Z,101217.84
2022-09-07T03:56:32.788Z,101203.69
2022-09-07T03:57:04.188Z,101213.53
2022-09-07T03:57:36.067Z,101202.91
2022-09-07T03:58:07.421Z,101202.88
2022-09-07T03:58:39.149Z,101203.28
2022-09-07T03:59:28.959Z,101204.47
2022-09-07T04:00:00.338Z,101205.25
2022-09-07T04:02:19.477Z,101206.84
2022-09-07T04:02:50.937Z,101212.78
2022-09-07T04:03:22.444Z,101210.06
2022-09-07T04:04:01.373Z,101213.97
2022-09-07T04:04:33.927Z,101216.34
2022-09-07T04:05:24.064Z,101217.13
2022-09-07T04:05:58.472Z,101222.25
2022-09-07T04:06:30.585Z,101226.56
2022-09-07T04:07:01.948Z,101223.03
2022-09-07T04:07:33.308Z,101229.72
2022-09-07T04:08:22.833Z,101226.56
2022-09-07T04:08:56.169Z,101235.25
2022-09-07T04:09:27.540Z,101237.56
2022-09-07T04:10:47.965Z,101238.38
2022-09-07T04:11:19.432Z,101236.78
2022-09-07T04:11:51.103Z,101236.03
2022-09-07T04:12:22.447Z,101235.25
2022-09-07T04:12:53.810Z,101238.78
2022-09-07T04:13:26.406Z,101232.47
2022-09-07T04:13:58.050Z,101235.25
2022-09-07T04:14:47.737Z,101234.88
2022-09-07T04:15:37.874Z,101226.59
2022-09-07T04:16:15.219Z,101229.34
2022-09-07T04:16:46.894Z,101225.44
2022-09-07T04:17:18.475Z,101227.41
2022-09-07T04:17:49.797Z,101228.19
2022-09-07T04:18:21.605Z,101230.59
2022-09-07T04:18:59.069Z,101225.44
2022-09-07T04:19:30.580Z,101232.94
2022-09-07T04:20:04.699Z,101231.38
2022-09-07T04:20:54.424Z,101241.59
2022-09-07T04:21:29.138Z,101239.63
2022-09-07T04:22:00.541Z,101245.56
2022-09-07T04:22:31.894Z,101245.97
2022-09-07T04:23:03.449Z,101246.41
2022-09-07T04:23:37.403Z,101240.53
2022-09-07T04:24:08.807Z,101246.41
2022-09-07T04:24:40.163Z,101246.75
2022-09-07T04:25:11.517Z,101245.19
2022-09-07T04:25:52.549Z,101244.78
2022-09-07T04:26:25.429Z,101251.06
2022-09-07T04:26:56.787Z,101242.09
2022-09-07T04:27:46.649Z,101244.00
2022-09-07T04:28:19.756Z,101244.00
2022-09-07T04:28:53.954Z,101240.53
2022-09-07T04:29:25.434Z,101253.44
2022-09-07T04:29:56.810Z,101253.44
2022-09-07T04:30:28.383Z,101254.66
2022-09-07T04:31:02.995Z,101247.22
2022-09-07T04:31:52.808Z,101253.88
2022-09-07T04:32:24.122Z,101254.28
2022-09-07T04:32:55.468Z,101248.03
2022-09-07T04:33:26.989Z,101248.81
2022-09-07T04:33:58.416Z,101248.06
2022-09-07T04:34:48.750Z,101249.22
2022-09-07T04:35:20.088Z,101247.28
2022-09-07T04:35:51.669Z,101250.06
2022-09-07T04:36:42.131Z,101252.03
2022-09-07T04:37:13.483Z,101252.81
2022-09-07T04:37:45.183Z,101248.06
2022-09-07T04:38:16.606Z,101250.47
2022-09-07T04:38:57.414Z,101252.03
2022-09-07T04:39:28.961Z,101249.69
2022-09-07T04:40:00.434Z,101252.84
2022-09-07T04:40:32.349Z,101250.50
2022-09-07T04:41:15.384Z,101250.50
2022-09-07T04:41:46.722Z,101255.22
2022-09-07T04:42:18.589Z,101248.94
2022-09-07T04:42:50.136Z,101258.38
2022-09-07T04:43:21.511Z,101250.50
2022-09-07T04:44:16.951Z,101247.78
2022-09-07T04:44:51.427Z,101245.38
2022-09-07T04:45:22.768Z,101247.38
2022-09-07T04:45:54.181Z,101245.00
2022-09-07T04:46:30.482Z,101243.03
2022-09-07T04:47:01.977Z,101238.31
2022-09-07T04:48:05.863Z,101234.00
2022-09-07T04:48:37.239Z,101242.69
2022-09-07T04:49:10.653Z,101239.50
2022-09-07T04:49:42.019Z,101237.53
2022-09-07T04:50:13.376Z,101240.28
2022-09-07T04:50:44.708Z,101237.97
2022-09-07T04:51:16.948Z,101252.53
2022-09-07T04:51:48.391Z,101245.06
2022-09-07T04:52:19.849Z,101244.28
2022-09-07T04:52:51.241Z,101249.00
2022-09-07T04:53:22.609Z,101247.00
2022-09-07T04:53:55.468Z,101256.47
2022-09-07T04:54:27.043Z,101239.19
2022-09-07T04:54:58.425Z,101246.22
2022-09-07T04:55:29.804Z,101241.53
2022-09-07T04:56:01.586Z,101242.31
2022-09-07T04:56:33.226Z,101236.81
2022-09-07T04:57:04.733Z,101248.63
2022-09-07T04:57:36.129Z,101247.06
2022-09-07T04:58:07.485Z,101243.09
2022-09-07T04:58:38.838Z,101243.09
2022-09-07T04:59:10.343Z,101248.22
2022-09-07T04:59:41.743Z,101245.44
2022-09-07T05:00:13.492Z,101246.22
2022-09-07T05:00:44.913Z,101246.22
2022-09-07T05:01:19.455Z,101248.22
2022-09-07T05:01:51.048Z,101242.25
2022-09-07T05:02:22.475Z,101245.81
2022-09-07T05:02:54.043Z,101243.47
2022-09-07T05:03:25.377Z,101241.50
2022-09-07T05:03:59.619Z,101239.50
2022-09-07T05:04:49.425Z,101238.31
2022-09-07T05:05:20.807Z,101237.97
2022-09-07T05:06:11.051Z,101238.38
2022-09-07T05:06:42.624Z,101232.88
2022-09-07T05:07:14.067Z,101233.25
2022-09-07T05:07:45.437Z,101230.13
2022-09-07T05:08:16.772Z,101231.31
2022-09-07T05:08:51.399Z,101238.75
2022-09-07T05:10:11.764Z,101236.41
2022-09-07T05:10:51.490Z,101239.50
2022-09-07T05:11:43.004Z,101239.50
2022-09-07T05:12:32.836Z,101233.25
2022-09-07T05:13:04.183Z,101234.44
2022-09-07T05:13:35.582Z,101235.63
2022-09-07T05:14:25.685Z,101234.06
2022-09-07T05:14:57.309Z,101236.03
2022-09-07T05:15:30.396Z,101236.03
2022-09-07T05:16:15.279Z,101242.72
2022-09-07T05:17:05.107Z,101244.72
2022-09-07T05:17:37.055Z,101240.38
2022-09-07T05:18:08.955Z,101241.56
2022-09-07T05:18:40.586Z,101241.16
2022-09-07T05:19:13.164Z,101245.91
2022-09-07T05:19:44.774Z,101241.19
2022-09-07T05:20:20.060Z,101247.47
2022-09-07T05:20:51.862Z,101245.13
2022-09-07T05:21:25.998Z,101247.88
2022-09-07T05:21:57.603Z,101241.97
2022-09-07T05:22:29.081Z,101239.25
2022-09-07T05:23:00.482Z,101242.03
2022-09-07T05:23:31.844Z,101242.78
2022-09-07T05:24:53.215Z,101240.41
2022-09-07T05:25:24.915Z,101243.19
2022-09-07T05:25:56.260Z,101238.06
2022-09-07T05:26:30.025Z,101240.41
2022-09-07T05:27:02.934Z,101246.72
2022-09-07T05:27:34.320Z,101233.34
2022-09-07T05:28:05.682Z,101239.63
2022-09-07T05:31:23.668Z,101218.44
2022-09-07T05:31:55.075Z,101217.66
2022-09-07T05:32:26.395Z,101217.66
2022-09-07T05:33:01.250Z,101214.56
2022-09-07T05:34:59.468Z,101220.03
2022-09-07T05:35:31.304Z,101220.81
2022-09-07T05:36:22.629Z,101228.28
2022-09-07T05:36:53.947Z,101225.91
2022-09-07T05:37:25.271Z,101229.44
2022-09-07T05:37:56.712Z,101224.72
2022-09-07T05:38:29.207Z,101223.94
2022-09-07T05:39:00.712Z,101228.25
2022-09-07T05:39:32.223Z,101232.56
2022-09-07T05:40:04.893Z,101229.44
2022-09-07T05:40:40.517Z,101231.78
2022-09-07T05:41:12.241Z,101227.47
2022-09-07T05:41:43.576Z,101230.22
2022-09-07T05:42:15.053Z,101230.63
2022-09-07T05:42:46.620Z,101233.75
2022-09-07T05:43:18.177Z,101229.44
2022-09-07T05:45:18.808Z,101237.69
2022-09-07T05:45:50.208Z,101241.22
2022-09-07T05:46:22.255Z,101240.44
2022-09-07T05:46:53.614Z,101236.50
2022-09-07T05:47:24.998Z,101241.22
2022-09-07T05:47:56.443Z,101242.03
2022-09-07T05:48:27.768Z,101233.75
2022-09-07T05:49:00.579Z,101235.72
2022-09-07T05:49:32.368Z,101240.44
2022-09-07T05:50:06.129Z,101242.81
2022-09-07T05:50:37.493Z,101236.50
2022-09-07T05:51:10.235Z,101238.06
2022-09-07T05:51:41.590Z,101239.25
2022-09-07T05:52:31.296Z,101234.94
2022-09-07T05:53:03.116Z,101232.97
2022-09-07T05:53:36.377Z,101235.72
2022-09-07T05:54:07.734Z,101234.56
2022-09-07T05:55:07.717Z,101238.88
2022-09-07T05:55:44.624Z,101238.09
2022-09-07T05:56:16.243Z,101242.84
2022-09-07T05:56:47.619Z,101242.84
2022-09-07T05:57:19.169Z,101236.53
2022-09-07T05:58:39.572Z,101250.31
2022-09-07T05:59:11.038Z,101239.69
2022-09-07T05:59:42.367Z,101245.22
2022-09-07T06:00:14.355Z,101243.66
2022-09-07T06:00:45.917Z,101244.50
2022-09-07T06:01:35.962Z,101248.03
2022-09-07T06:02:07.639Z,101242.94
2022-09-07T06:02:39.896Z,101253.94
2022-09-07T06:03:11.793Z,101246.88
2022-09-07T06:03:44.423Z,101245.31
2022-09-07T06:04:15.883Z,101255.13
2022-09-07T06:04:47.686Z,101262.19
2022-09-07T06:05:37.650Z,101252.00
2022-09-07T06:06:18.352Z,101262.19
2022-09-07T06:07:17.609Z,101267.34
2022-09-07T06:07:41.332Z,101266.56
2022-09-07T06:08:13.242Z,101271.28
2022-09-07T06:08:47.202Z,101266.94
2022-09-07T06:09:18.539Z,101266.16
2022-09-07T06:11:16.680Z,101266.94
2022-09-07T06:11:48.028Z,101262.63
2022-09-07T06:12:19.394Z,101269.72
2022-09-07T06:12:50.807Z,101261.06
2022-09-07T06:13:22.461Z,101264.19
2022-09-07T06:14:12.495Z,101270.50
2022-09-07T06:14:43.897Z,101268.13
2022-09-07T06:15:16.086Z,101265.38
2022-09-07T06:15:47.609Z,101272.47
2022-09-07T06:16:20.091Z,101271.31
2022-09-07T06:16:51.657Z,101262.63
2022-09-07T06:17:23.040Z,101274.44
2022-09-07T06:17:54.440Z,101267.34
2022-09-07T06:18:29.826Z,101268.13
2022-09-07T06:19:05.950Z,101268.94
2022-09-07T06:20:44.099Z,101271.69
2022-09-07T06:21:19.864Z,101269.75
2022-09-07T06:21:51.418Z,101273.66
2022-09-07T06:22:23.527Z,101270.91
2022-09-07T06:22:56.417Z,101278.00
2022-09-07T06:23:27.839Z,101276.41
2022-09-07T06:24:48.478Z,101273.66
2022-09-07T06:25:20.012Z,101273.66
2022-09-07T06:25:51.376Z,101270.13
2022-09-07T06:26:22.701Z,101273.66
2022-09-07T06:26:54.059Z,101274.84
2022-09-07T06:27:25.403Z,101273.28
2022-09-07T06:27:56.740Z,101269.75
2022-09-07T06:28:32.767Z,101277.59
2022-09-07T06:29:23.441Z,101278.38
2022-09-07T06:29:55.453Z,101274.06
2022-09-07T06:30:27.092Z,101279.56
2022-09-07T06:32:44.055Z,101281.94
2022-09-07T06:33:19.574Z,101279.19
2022-09-07T06:34:12.886Z,101280.75
2022-09-07T06:34:44.198Z,101276.84
2022-09-07T06:35:15.816Z,101281.94
2022-09-07T06:35:58.639Z,101282.72
2022-09-07T06:36:51.652Z,101291.75
2022-09-07T06:37:22.974Z,101285.84
2022-09-07T06:37:54.289Z,101283.50
2022-09-07T06:38:31.799Z,101279.97
2022-09-07T06:39:22.228Z,101289.78
2022-09-07T06:39:53.619Z,101291.75
2022-09-07T06:40:43.416Z,101287.44
2022-09-07T06:42:15.712Z,101285.47
2022-09-07T06:42:47.036Z,101284.28
2022-09-07T06:43:18.827Z,101286.63
2022-09-07T06:43:50.553Z,101286.63
2022-09-07T06:44:21.863Z,101282.31
2022-09-07T06:44:53.647Z,101285.84
2022-09-07T06:45:25.264Z,101284.66
2022-09-07T06:45:56.818Z,101286.25
2022-09-07T06:47:38.310Z,101279.16
2022-09-07T06:48:09.626Z,101276.03
2022-09-07T06:48:44.272Z,101280.34
2022-09-07T06:49:15.935Z,101277.19
2022-09-07T06:49:47.297Z,101278.78
2022-09-07T06:50:18.624Z,101282.31
2022-09-07T06:51:19.473Z,101279.94
2022-09-07T06:53:34.428Z,101274.81
2022-09-07T06:55:29.822Z,101272.81
2022-09-07T06:56:53.525Z,101277.06
2022-09-07T06:57:24.923Z,101275.88
2022-09-07T06:57:56.239Z,101277.03
2022-09-07T06:58:28.800Z,101276.63
2022-09-07T06:59:00.377Z,101282.91
2022-09-07T06:59:31.691Z,101279.75
2022-09-07T07:00:03.823Z,101282.91
2022-09-07T07:00:35.188Z,101284.47
2022-09-07T07:01:26.821Z,101279.72
2022-09-07T07:01:58.157Z,101276.56
2022-09-07T07:02:29.483Z,101290.72
2022-09-07T07:03:00.912Z,101282.03
2022-09-07T07:03:32.325Z,101289.88
2022-09-07T07:04:03.695Z,101292.22
2022-09-07T07:04:40.347Z,101286.31
2022-09-07T07:05:12.324Z,101292.19
2022-09-07T07:05:53.792Z,101292.19
2022-09-07T07:06:33.708Z,101299.25
2022-09-07T07:07:23.686Z,101286.28
2022-09-07T07:08:13.464Z,101293.75
2022-09-07T07:08:44.876Z,101294.94
2022-09-07T07:09:16.196Z,101301.66
2022-09-07T07:09:49.892Z,101291.41
2022-09-07T07:10:24.765Z,101294.94
2022-09-07T07:11:00.810Z,101291.78
2022-09-07T07:11:32.279Z,101295.31
2022-09-07T07:12:03.719Z,101295.31
2022-09-07T07:13:08.180Z,101287.06
2022-09-07T07:13:41.327Z,101291.38
2022-09-07T07:14:15.927Z,101289.41
2022-09-07T07:14:47.240Z,101290.56
2022-09-07T07:15:19.159Z,101290.94
2022-09-07T07:15:53.447Z,101292.50
2022-09-07T07:16:25.071Z,101290.13
2022-09-07T07:16:56.700Z,101295.56
2022-09-07T07:17:28.016Z,101293.97
2022-09-07T07:18:09.650Z,101294.34
2022-09-07T07:18:55.114Z,101285.66
2022-09-07T07:19:26.419Z,101288.00
2022-09-07T07:20:16.919Z,101295.09
2022-09-07T07:20:48.308Z,101290.31
2022-09-07T07:21:19.639Z,101292.28
2022-09-07T07:22:46.430Z,101291.09
2022-09-07T07:23:18.338Z,101289.91
2022-09-07T07:23:51.235Z,101288.34
2022-09-07T07:24:22.866Z,101289.13
2022-09-07T07:24:54.243Z,101287.16
2022-09-07T07:25:25.575Z,101291.88
2022-09-07T07:26:16.600Z,101286.38
2022-09-07T07:26:48.649Z,101291.88
2022-09-07T07:27:21.464Z,101289.91
2022-09-07T07:27:52.793Z,101285.97
2022-09-07T07:29:18.928Z,101288.66
2022-09-07T07:29:50.489Z,101292.94
2022-09-07T07:30:22.230Z,101290.97
2022-09-07T07:30:58.119Z,101299.59
2022-09-07T07:31:30.167Z,101296.06
2022-09-07T07:32:01.860Z,101296.84
2022-09-07T07:32:33.166Z,101297.22
2022-09-07T07:33:07.120Z,101298.78
2022-09-07T07:33:39.380Z,101296.41
2022-09-07T07:35:01.377Z,101292.41
2022-09-07T07:35:32.647Z,101295.16
2022-09-07T07:36:30.805Z,101299.03
2022-09-07T07:37:02.084Z,101300.59
2022-09-07T07:37:33.498Z,101293.91
2022-09-07T07:40:43.285Z,101302.03
2022-09-07T07:42:08.581Z,101307.84
2022-09-07T07:42:41.375Z,101303.50
2022-09-07T07:43:12.713Z,101308.59
2022-09-07T07:43:44.548Z,101300.28